Time;durP1;ratioP1;P1;durP2;ratioP2;P2;SDS_P1;SDS_P2;PMS_P1;PMS_P2;Temp;Humidity;BMP_temperature;BMP_pressure;BME280_temperature;BME280_humidity;BME280_pressure;Samples;Min_cycle;Max_cycle;Signal;HPM_P1;HPM_P2
2022/02/18 00:02:18;;;;;;;7.43;2.37;;;;;;;5.47;70.31;100350.38;5034949;28;20210;-76
2022/02/18 00:04:45;;;;;;;5.77;1.50;;;;;;;5.41;70.94;100328.78;5035121;28;20230;-77
2022/02/18 00:07:11;;;;;;;2.63;1.87;;;;;;;5.38;71.79;100311.53;5035050;28;20220;-77
2022/02/18 00:09:38;;;;;;;6.20;2.43;;;;;;;5.37;72.44;100289.97;5034859;28;20239;-77
2022/02/18 00:12:05;;;;;;;9.10;2.07;;;;;;;5.40;72.72;100273.59;5034979;28;20267;-77
2022/02/18 00:14:31;;;;;;;5.87;2.03;;;;;;;5.32;73.43;100271.00;5035139;28;20711;-77
2022/02/18 00:16:58;;;;;;;6.33;2.30;;;;;;;5.30;73.69;100254.59;5034601;28;20625;-77
2022/02/18 00:19:26;;;;;;;6.73;3.17;;;;;;;5.31;74.24;100255.44;5034829;28;20280;-76
2022/02/18 00:21:52;;;;;;;6.13;2.37;;;;;;;5.17;74.89;100234.75;5034908;28;20217;-76
2022/02/18 00:24:19;;;;;;;4.13;2.17;;;;;;;5.21;75.26;100238.22;5034695;28;20239;-76
2022/02/18 00:26:45;;;;;;;5.23;2.30;;;;;;;5.21;75.74;100231.31;5034810;28;20579;-77
2022/02/18 00:29:12;;;;;;;9.27;2.33;;;;;;;5.21;75.57;100209.75;5034592;28;20205;-77
2022/02/18 00:31:38;;;;;;;7.83;2.50;;;;;;;5.29;76.10;100206.31;5033782;28;20212;-77
2022/02/18 00:34:05;;;;;;;4.50;1.77;;;;;;;5.31;75.36;100214.03;5034569;28;20229;-77
2022/02/18 00:36:33;;;;;;;5.20;2.03;;;;;;;5.29;75.93;100219.25;5034603;28;20260;-77
2022/02/18 00:39:00;;;;;;;4.20;2.40;;;;;;;5.22;76.44;100201.13;5034483;28;20283;-76
2022/02/18 00:41:26;;;;;;;5.67;1.90;;;;;;;5.25;76.30;100199.41;5034308;28;20208;-77
2022/02/18 00:43:53;;;;;;;4.07;1.60;;;;;;;5.28;76.56;100194.22;5033996;28;20228;-77
2022/02/18 00:46:20;;;;;;;5.03;1.67;;;;;;;5.20;76.91;100184.75;5034300;28;20262;-76
2022/02/18 00:48:46;;;;;;;3.10;1.30;;;;;;;5.16;77.10;100176.13;5034433;28;20205;-77
2022/02/18 00:51:12;;;;;;;4.13;2.10;;;;;;;5.21;77.33;100176.13;5034193;28;20211;-77
2022/02/18 00:53:40;;;;;;;5.07;1.73;;;;;;;5.26;77.35;100182.16;5034032;28;20641;-77
2022/02/18 00:56:07;;;;;;;5.27;1.73;;;;;;;5.29;77.15;100175.25;5034174;28;20211;-77
2022/02/18 00:58:34;;;;;;;4.30;1.80;;;;;;;5.24;77.23;100176.97;5033929;28;20243;-77
2022/02/18 01:01:00;;;;;;;6.83;1.87;;;;;;;5.25;77.95;100157.13;5034144;28;20632;-77
2022/02/18 01:03:27;;;;;;;6.80;2.13;;;;;;;5.23;77.84;100157.13;5034057;28;20229;-76
2022/02/18 01:05:53;;;;;;;6.90;2.10;;;;;;;5.26;77.42;100159.72;5034020;28;20283;-77
2022/02/18 01:08:19;;;;;;;5.20;1.97;;;;;;;5.32;77.12;100169.19;5033816;28;20206;-77
2022/02/18 01:10:48;;;;;;;5.33;2.50;;;;;;;5.35;77.41;100161.41;5033789;28;20204;-77
2022/02/18 01:13:14;;;;;;;8.90;2.67;;;;;;;5.38;77.49;100153.66;5033489;28;20217;-77
2022/02/18 01:15:41;;;;;;;11.90;2.50;;;;;;;5.28;78.28;100163.16;5033917;28;20212;-76
2022/02/18 01:18:07;;;;;;;2.73;1.97;;;;;;;5.40;77.71;100153.66;5033759;28;20296;-77
2022/02/18 01:20:34;;;;;;;5.87;2.83;;;;;;;5.42;77.68;100173.50;5033708;28;20237;-77
2022/02/18 01:23:00;;;;;;;3.60;2.33;;;;;;;5.40;77.86;100170.03;5033524;28;20263;-76
2022/02/18 01:25:27;;;;;;;6.37;2.53;;;;;;;5.46;78.46;100162.25;5033613;28;20613;-77
2022/02/18 01:27:56;;;;;;;4.33;2.47;;;;;;;5.51;77.97;100182.94;5033694;28;20216;-77
2022/02/18 01:30:24;;;;;;;4.40;2.57;;;;;;;5.55;77.98;100179.50;5033441;28;20208;-77
2022/02/18 01:32:51;;;;;;;5.13;3.20;;;;;;;5.52;78.07;100180.38;5033478;28;20223;-77
2022/02/18 01:35:17;;;;;;;5.77;3.33;;;;;;;5.41;78.08;100174.38;5033278;28;20231;-77
2022/02/18 01:37:44;;;;;;;7.07;3.87;;;;;;;5.31;78.42;100158.00;5033659;28;20208;-76
2022/02/18 01:40:12;;;;;;;5.77;3.03;;;;;;;5.35;78.53;100145.88;5032969;28;20233;-76
2022/02/18 01:42:39;;;;;;;9.10;3.77;;;;;;;5.22;78.62;100145.06;5033272;28;20234;-76
2022/02/18 01:45:08;;;;;;;7.77;3.50;;;;;;;5.20;79.51;100133.84;5033134;28;20229;-77
2022/02/18 01:47:34;;;;;;;6.50;3.33;;;;;;;5.24;79.73;100126.97;5032434;28;20209;-76
2022/02/18 01:50:01;;;;;;;4.70;3.37;;;;;;;5.33;79.32;100116.56;5032984;28;20201;-76
2022/02/18 01:52:29;;;;;;;6.37;3.93;;;;;;;5.37;79.29;100118.28;5033038;28;20213;-76
2022/02/18 01:54:56;;;;;;;5.23;3.27;;;;;;;5.42;78.66;100120.88;5033054;28;20460;-77
2022/02/18 01:57:24;;;;;;;8.77;3.27;;;;;;;5.42;78.48;100124.31;5032832;28;20216;-77
2022/02/18 01:59:51;;;;;;;10.40;2.80;;;;;;;5.52;78.03;100125.16;5032612;28;20233;-76
2022/02/18 02:02:19;;;;;;;9.07;3.27;;;;;;;5.50;78.85;100122.56;5032977;28;20208;-77
2022/02/18 02:04:47;;;;;;;6.77;3.33;;;;;;;5.52;78.29;100114.78;5032734;28;20233;-76
2022/02/18 02:07:13;;;;;;;7.17;3.13;;;;;;;5.45;78.42;100107.91;5032823;28;20274;-76
2022/02/18 02:09:40;;;;;;;7.47;2.97;;;;;;;5.46;79.27;100096.69;5032548;28;20570;-76
2022/02/18 02:12:06;;;;;;;7.23;2.77;;;;;;;5.46;79.51;100076.84;5032911;28;20206;-76
2022/02/18 02:14:33;;;;;;;5.87;2.90;;;;;;;5.53;78.36;100093.19;5032601;28;20608;-77
2022/02/18 02:16:59;;;;;;;5.90;2.63;;;;;;;5.45;79.21;100100.13;5032286;28;20748;-77
2022/02/18 02:19:29;;;;;;;7.27;3.20;;;;;;;5.42;79.28;100089.81;5032174;28;20635;-76
2022/02/18 02:21:57;;;;;;;4.40;2.60;;;;;;;5.36;79.79;100085.50;5032644;28;20214;-77
2022/02/18 02:24:25;;;;;;;9.20;3.13;;;;;;;5.42;79.70;100084.63;5032506;28;20642;-77
2022/02/18 02:26:51;;;;;;;4.63;3.27;;;;;;;5.45;79.86;100087.19;5032564;28;20208;-77
2022/02/18 02:29:18;;;;;;;5.23;2.70;;;;;;;5.44;79.71;100088.94;5032180;28;20733;-77
2022/02/18 02:31:45;;;;;;;5.83;2.93;;;;;;;5.26;80.17;100069.16;5032360;28;20262;-76
2022/02/18 02:34:12;;;;;;;5.07;2.37;;;;;;;5.25;80.64;100053.63;5032203;28;20271;-76
2022/02/18 02:36:38;;;;;;;6.17;2.83;;;;;;;5.33;80.61;100045.00;5032659;28;20235;-77
2022/02/18 02:39:06;;;;;;;8.33;3.03;;;;;;;5.30;80.70;100055.34;5032282;28;20229;-77
2022/02/18 02:41:34;;;;;;;4.73;3.10;;;;;;;5.13;81.24;100034.72;5032130;28;20289;-76
2022/02/18 02:44:00;;;;;;;5.03;2.63;;;;;;;5.22;81.01;100023.47;5032079;28;20316;-77
2022/02/18 02:46:27;;;;;;;7.40;2.63;;;;;;;5.26;81.21;100019.13;5031975;28;20623;-77
2022/02/18 02:48:53;;;;;;;5.53;3.23;;;;;;;5.18;81.77;100012.25;5031931;28;20213;-77
2022/02/18 02:51:20;;;;;;;6.17;2.90;;;;;;;5.18;81.67;100004.50;5031840;28;20213;-76
2022/02/18 02:53:46;;;;;;;8.67;3.17;;;;;;;5.29;81.18;100012.22;5032081;28;20232;-77
2022/02/18 02:56:13;;;;;;;9.43;2.70;;;;;;;5.32;81.09;100008.75;5031504;28;20731;-77
2022/02/18 02:58:42;;;;;;;7.27;3.13;;;;;;;5.45;80.86;100005.25;5031822;28;20648;-77
2022/02/18 03:01:09;;;;;;;8.57;3.33;;;;;;;5.41;80.76;100013.00;5031773;28;20610;-77
2022/02/18 03:03:35;;;;;;;10.90;3.50;;;;;;;5.41;81.33;100008.72;5031625;28;20232;-77
2022/02/18 03:06:02;;;;;;;7.33;3.13;;;;;;;5.48;81.19;100015.56;5031981;28;20208;-77
2022/02/18 03:08:28;;;;;;;10.10;3.07;;;;;;;5.61;80.88;100007.72;5032000;28;20286;-76
2022/02/18 03:13:40;;;;;;;7.47;2.83;;;;;;;5.58;80.60;100019.81;5031830;28;20336;-77
2022/02/18 03:16:07;;;;;;;8.23;3.23;;;;;;;5.65;80.89;100012.91;5031459;28;20278;-77
2022/02/18 03:18:33;;;;;;;6.77;2.90;;;;;;;5.64;80.66;100018.94;5031617;28;20203;-77
2022/02/18 03:20:59;;;;;;;8.90;3.90;;;;;;;5.56;81.34;100018.97;5031531;28;20732;-77
2022/02/18 03:23:26;;;;;;;7.70;3.07;;;;;;;5.59;81.08;100015.53;5031593;28;20253;-77
2022/02/18 03:25:53;;;;;;;5.90;2.90;;;;;;;5.64;80.52;100034.47;5031976;28;20212;-77
2022/02/18 03:28:19;;;;;;;8.57;3.13;;;;;;;5.61;80.98;100023.25;5031820;28;20648;-77
2022/02/18 03:30:47;;;;;;;13.30;2.93;;;;;;;5.60;81.63;100039.69;5031303;28;20202;-77
2022/02/18 03:33:14;;;;;;;10.10;2.77;;;;;;;5.58;81.24;100026.75;5031716;28;20207;-77
2022/02/18 03:35:40;;;;;;;10.80;3.53;;;;;;;5.63;81.34;100027.59;5031751;28;20214;-77
2022/02/18 03:38:07;;;;;;;9.83;3.30;;;;;;;5.57;81.99;100005.19;5031775;28;20259;-77
2022/02/18 03:40:34;;;;;;;7.10;3.00;;;;;;;5.61;82.52;99998.25;5031286;28;20232;-77
2022/02/18 03:43:00;;;;;;;11.27;3.60;;;;;;;5.62;81.59;100005.13;5031319;28;20208;-76
2022/02/18 03:45:27;;;;;;;11.07;3.47;;;;;;;5.64;82.02;100006.00;5031771;28;20212;-77
2022/02/18 03:47:55;;;;;;;8.20;3.47;;;;;;;5.68;81.92;100006.84;5031363;28;20900;-77
2022/02/18 03:50:22;;;;;;;9.53;3.90;;;;;;;5.40;83.21;99982.84;5031531;28;20256;-77
2022/02/18 03:52:51;;;;;;;9.20;4.30;;;;;;;5.46;83.43;99965.53;5031505;28;20208;-77
2022/02/18 03:55:18;;;;;;;12.53;4.20;;;;;;;5.50;83.33;99949.13;5031312;28;20229;-77
2022/02/18 03:57:45;;;;;;;10.07;4.50;;;;;;;5.55;83.23;99944.78;5031325;28;20221;-77
2022/02/18 04:00:12;;;;;;;8.47;4.50;;;;;;;5.46;84.28;99946.56;5031259;28;20645;-77
2022/02/18 04:02:39;;;;;;;11.27;5.37;;;;;;;5.49;84.25;99933.59;5031494;28;20214;-77
2022/02/18 04:05:07;;;;;;;7.27;4.63;;;;;;;5.57;84.05;99924.06;5031365;28;20283;-77
2022/02/18 04:07:33;;;;;;;7.00;4.40;;;;;;;5.57;83.19;99922.34;5032904;28;20675;-77
2022/02/18 04:10:00;;;;;;;14.30;5.33;;;;;;;5.52;84.01;99921.50;5034786;28;20204;-77
2022/02/18 04:12:27;;;;;;;10.13;5.50;;;;;;;5.46;84.50;99911.19;5034744;28;20752;-77
2022/02/18 04:14:53;;;;;;;10.17;5.47;;;;;;;5.57;84.02;99899.03;5034634;28;20598;-77
2022/02/18 04:17:21;;;;;;;10.10;4.97;;;;;;;5.47;84.93;99901.69;5034700;28;20620;-76
2022/02/18 04:19:48;;;;;;;11.33;5.23;;;;;;;5.56;84.34;99886.09;5034721;28;20325;-77
2022/02/18 04:22:15;;;;;;;17.57;6.33;;;;;;;5.53;84.79;99884.41;5034875;28;20209;-77
2022/02/18 04:24:42;;;;;;;7.67;5.20;;;;;;;5.57;84.40;99896.44;5034547;28;20648;-77
2022/02/18 04:27:08;;;;;;;8.63;5.77;;;;;;;5.31;85.71;99875.94;5035098;28;20213;-77
2022/02/18 04:29:35;;;;;;;9.60;6.47;;;;;;;5.31;86.29;99857.81;5034659;28;20259;-77
2022/02/18 04:32:01;;;;;;;9.07;5.33;;;;;;;5.33;86.50;99848.31;5034750;28;20213;-76
2022/02/18 04:34:27;;;;;;;13.37;6.57;;;;;;;5.42;86.41;99851.69;5034363;28;20626;-77
2022/02/18 04:36:54;;;;;;;12.83;6.60;;;;;;;5.40;86.18;99856.88;5034624;28;20206;-77
2022/02/18 04:39:22;;;;;;;11.67;6.67;;;;;;;5.44;86.17;99853.38;5034064;28;20258;-77
2022/02/18 04:41:48;;;;;;;11.37;6.53;;;;;;;5.46;86.22;99846.47;5034651;28;20267;-77
2022/02/18 04:44:16;;;;;;;12.37;7.50;;;;;;;5.45;86.36;99843.88;5033508;28;20229;-76
2022/02/18 04:46:42;;;;;;;9.10;7.10;;;;;;;5.50;85.89;99836.97;5034778;28;20212;-77
2022/02/18 04:49:09;;;;;;;11.33;8.13;;;;;;;5.49;86.04;99849.06;5034503;28;20209;-77
2022/02/18 04:51:37;;;;;;;10.83;6.40;;;;;;;5.44;86.40;99849.94;5034236;28;20218;-77
2022/02/18 04:54:03;;;;;;;11.97;6.90;;;;;;;5.42;86.73;99828.41;5034166;28;20315;-77
2022/02/18 04:56:32;;;;;;;11.10;7.23;;;;;;;5.45;86.03;99839.59;5034083;28;20736;-77
2022/02/18 04:58:59;;;;;;;12.17;7.37;;;;;;;5.52;86.34;99837.81;5034014;28;20209;-77
2022/02/18 05:01:26;;;;;;;11.40;7.63;;;;;;;5.55;85.61;99836.06;5033846;28;20211;-77
2022/02/18 05:03:53;;;;;;;10.60;6.17;;;;;;;5.58;85.39;99836.00;5034175;28;20638;-77
2022/02/18 05:09:03;;;;;;;10.47;5.90;;;;;;;5.64;84.93;99849.78;5018311;28;20654;-80
2022/02/18 05:11:29;;;;;;;9.87;6.43;;;;;;;5.62;85.50;99838.59;5034845;28;20756;-80
2022/02/18 05:13:57;;;;;;;9.37;6.67;;;;;;;5.54;85.88;99836.91;5035541;28;20229;-80
2022/02/18 05:16:23;;;;;;;12.80;5.93;;;;;;;5.50;85.95;99830.03;5035338;28;20283;-80
2022/02/18 05:18:51;;;;;;;13.40;6.87;;;;;;;5.53;85.89;99837.81;5034344;28;20678;-80
2022/02/18 05:21:19;;;;;;;8.07;7.20;;;;;;;5.54;85.95;99836.06;5034596;28;20440;-80
2022/02/18 05:23:46;;;;;;;10.53;7.03;;;;;;;5.50;86.03;99835.22;5034751;28;20503;-80
2022/02/18 05:26:12;;;;;;;14.60;8.33;;;;;;;5.52;85.81;99820.53;5034869;28;20209;-81
2022/02/18 05:28:39;;;;;;;11.67;6.97;;;;;;;5.49;85.92;99814.53;5034530;28;20213;-80
2022/02/18 05:31:07;;;;;;;14.50;7.27;;;;;;;5.54;85.75;99818.78;5034843;28;20216;-80
2022/02/18 05:33:33;;;;;;;10.50;8.43;;;;;;;5.59;85.83;99818.78;5034805;28;20279;-80
2022/02/18 05:36:00;;;;;;;10.40;6.97;;;;;;;5.57;85.19;99823.97;5027286;28;20261;-80
2022/02/18 05:38:26;;;;;;;7.87;7.07;;;;;;;5.61;85.80;99831.69;5015489;28;20233;-79
2022/02/18 05:40:53;;;;;;;15.00;9.07;;;;;;;5.62;85.47;99823.91;5012462;28;20320;-79
2022/02/18 05:43:19;;;;;;;9.40;6.80;;;;;;;5.64;86.03;99824.75;5013517;28;20279;-80
2022/02/18 05:45:46;;;;;;;10.87;7.50;;;;;;;5.54;85.97;99810.16;5011885;28;20689;-79
2022/02/18 05:48:14;;;;;;;7.90;6.93;;;;;;;5.56;85.67;99809.28;5011543;28;20205;-80
2022/02/18 05:50:40;;;;;;;10.60;7.77;;;;;;;5.58;85.85;99811.88;5012728;28;20221;-80
2022/02/18 05:53:06;;;;;;;12.77;8.17;;;;;;;5.55;85.71;99810.16;5010201;28;20659;-80
2022/02/18 05:55:33;;;;;;;22.93;10.73;;;;;;;5.44;86.51;99795.59;5013574;28;20252;-80
2022/02/18 05:57:59;;;;;;;13.33;9.17;;;;;;;5.51;86.19;99790.38;5002516;28;20206;-80
2022/02/18 06:00:26;;;;;;;11.20;9.27;;;;;;;5.54;86.49;99785.13;5004275;28;20225;-79
2022/02/18 06:02:52;;;;;;;10.53;8.50;;;;;;;5.53;86.25;99772.19;5003261;28;20214;-79
2022/02/18 06:05:20;;;;;;;14.67;8.17;;;;;;;5.46;86.17;99761.06;5002158;28;20226;-80
2022/02/18 06:07:46;;;;;;;11.37;9.60;;;;;;;5.41;86.69;99760.25;5004093;28;20260;-79
2022/02/18 06:10:13;;;;;;;15.70;9.87;;;;;;;5.49;86.98;99755.88;5003001;28;20255;-79
2022/02/18 06:12:39;;;;;;;16.27;9.97;;;;;;;5.55;86.03;99755.81;5002389;28;20199;-79
2022/02/18 06:15:07;;;;;;;10.90;9.80;;;;;;;5.67;86.10;99762.59;4999261;28;20362;-79
2022/02/18 06:17:33;;;;;;;11.80;9.37;;;;;;;5.68;85.65;99753.94;5012370;28;20617;-80
2022/02/18 06:20:00;;;;;;;14.87;8.70;;;;;;;5.70;86.23;99753.94;5010376;28;20773;-79
2022/02/18 06:22:29;;;;;;;11.23;9.67;;;;;;;5.64;85.45;99756.59;5013129;28;20210;-79
2022/02/18 06:24:55;;;;;;;9.77;7.97;;;;;;;5.75;85.76;99757.34;5012618;28;20769;-79
2022/02/18 06:27:22;;;;;;;12.80;8.33;;;;;;;5.77;85.56;99753.00;5012818;28;20213;-79
2022/02/18 06:29:49;;;;;;;15.00;8.87;;;;;;;5.74;84.71;99758.19;5011892;28;20249;-79
2022/02/18 06:32:15;;;;;;;15.07;9.63;;;;;;;5.78;83.80;99768.50;5012639;28;20205;-79
2022/02/18 06:34:42;;;;;;;12.77;8.03;;;;;;;5.83;84.75;99775.38;5011950;28;20225;-79
2022/02/18 06:37:08;;;;;;;12.60;9.13;;;;;;;5.85;84.30;99778.81;5012921;28;20215;-80
2022/02/18 06:39:36;;;;;;;14.97;9.37;;;;;;;5.88;84.63;99796.91;5012711;28;20221;-78
2022/02/18 06:42:03;;;;;;;19.87;9.13;;;;;;;5.99;84.30;99789.06;5013186;28;20255;-80
2022/02/18 06:44:30;;;;;;;9.83;7.30;;;;;;;6.01;84.25;99782.16;5012700;28;20283;-79
2022/02/18 06:46:56;;;;;;;12.87;8.73;;;;;;;5.92;83.01;99799.44;5013442;28;20213;-80
2022/02/18 06:49:23;;;;;;;9.43;8.07;;;;;;;5.90;84.51;99785.66;5014829;28;20578;-80
2022/02/18 06:51:55;;;;;;;10.80;9.03;;;;;;;6.00;83.97;99772.66;5014980;28;20210;-79
2022/02/18 06:54:21;;;;;;;11.87;7.83;;;;;;;6.11;83.86;99783.75;5012972;28;20715;-79
2022/02/18 06:56:49;;;;;;;14.60;8.33;;;;;;;6.18;83.05;99797.50;5013293;28;20241;-80
2022/02/18 06:59:16;;;;;;;11.37;7.90;;;;;;;6.20;83.95;99782.78;5014618;28;20259;-80
2022/02/18 07:01:42;;;;;;;8.53;7.67;;;;;;;6.13;84.04;99767.31;5014927;28;20231;-79
2022/02/18 07:04:09;;;;;;;9.20;7.93;;;;;;;6.16;85.44;99740.50;5014981;28;20234;-79
2022/02/18 07:06:35;;;;;;;16.20;8.87;;;;;;;6.11;84.66;99745.75;5014737;28;20570;-79
2022/02/18 07:09:02;;;;;;;9.47;7.77;;;;;;;6.20;84.81;99726.63;5014307;28;20217;-80
2022/02/18 07:11:28;;;;;;;10.50;7.30;;;;;;;6.18;84.94;99728.38;5014288;28;20214;-80
2022/02/18 07:13:56;;;;;;;12.73;7.70;;;;;;;6.28;84.84;99721.34;5014784;28;20642;-79
2022/02/18 07:16:22;;;;;;;10.43;6.93;;;;;;;6.24;84.86;99715.34;5014311;28;20216;-80
2022/02/18 07:18:49;;;;;;;13.93;6.80;;;;;;;6.27;85.10;99698.91;5014258;28;20238;-81
2022/02/18 07:21:17;;;;;;;12.20;6.20;;;;;;;6.27;86.06;99684.22;5013477;28;20233;-81
2022/02/18 07:23:44;;;;;;;7.43;5.83;;;;;;;6.28;85.93;99672.09;5014025;28;20603;-81
2022/02/18 07:26:10;;;;;;;15.07;6.23;;;;;;;6.31;85.54;99659.97;5014839;28;20210;-81
2022/02/18 07:28:37;;;;;;;14.23;5.77;;;;;;;6.33;86.30;99663.38;5014496;28;20214;-81
2022/02/18 07:31:04;;;;;;;8.60;5.37;;;;;;;6.36;85.42;99652.09;5013724;28;20206;-80
2022/02/18 07:33:31;;;;;;;15.17;5.77;;;;;;;6.44;84.93;99647.69;5014292;28;20222;-81
2022/02/18 07:35:58;;;;;;;9.67;4.57;;;;;;;6.49;84.59;99651.06;5012426;28;20211;-81
2022/02/18 07:38:24;;;;;;;7.00;4.97;;;;;;;6.53;84.30;99639.75;5010934;28;20207;-82
2022/02/18 07:40:50;;;;;;;7.80;4.63;;;;;;;6.59;84.13;99630.19;5012118;28;20767;-81
2022/02/18 07:43:17;;;;;;;9.33;4.13;;;;;;;6.61;84.42;99607.69;5015813;28;20299;-82
2022/02/18 07:45:45;;;;;;;6.70;3.80;;;;;;;6.65;84.07;99604.16;5017014;28;20264;-82
2022/02/18 07:48:13;;;;;;;7.73;4.00;;;;;;;6.57;85.36;99607.72;5019306;28;20263;-82
2022/02/18 07:50:40;;;;;;;10.67;4.00;;;;;;;6.47;86.02;99585.41;5018621;28;20203;-83
2022/02/18 07:53:06;;;;;;;12.05;5.40;;;;;;;6.58;85.82;99580.06;5020106;28;20434;-82
2022/02/18 07:55:32;;;;;;;6.63;4.13;;;;;;;6.68;84.95;99567.78;5014642;28;20210;-81
2022/02/18 07:57:59;;;;;;;7.17;4.60;;;;;;;6.73;83.80;99573.75;5015098;28;20260;-78
2022/02/18 08:00:26;;;;;;;8.23;4.37;;;;;;;6.77;83.73;99588.38;5014834;28;20222;-78
2022/02/18 08:02:52;;;;;;;6.43;4.23;;;;;;;6.83;83.65;99600.38;5015430;28;20746;-77
2022/02/18 08:05:20;;;;;;;8.20;4.30;;;;;;;6.82;82.79;99601.25;5015527;28;20726;-78
2022/02/18 08:07:46;;;;;;;9.25;5.20;;;;;;;6.88;83.95;99588.22;5014698;28;20439;-79
2022/02/18 08:10:13;;;;;;;13.60;4.67;;;;;;;6.92;83.14;99577.75;5015142;28;20268;-79
2022/02/18 08:12:40;;;;;;;10.90;4.47;;;;;;;6.96;81.94;99565.56;5015241;28;20352;-79
2022/02/18 08:15:06;;;;;;;8.43;3.47;;;;;;;6.92;82.02;99571.72;5015494;28;20230;-79
2022/02/18 08:17:34;;;;;;;7.53;3.83;;;;;;;6.94;82.55;99564.75;5015025;28;20640;-79
2022/02/18 08:20:01;;;;;;;7.63;3.57;;;;;;;6.95;82.43;99554.31;5015056;28;20671;-83
2022/02/18 08:22:28;;;;;;;8.53;3.93;;;;;;;6.97;82.82;99544.78;5014825;28;20631;-83
2022/02/18 08:24:55;;;;;;;5.20;3.27;;;;;;;7.01;82.00;99550.75;5014930;28;20236;-83
2022/02/18 08:27:22;;;;;;;5.93;3.00;;;;;;;6.96;81.90;99550.84;5015078;28;20210;-83
2022/02/18 08:33:06;;;;;;;6.27;2.67;;;;;;;6.77;80.52;99578.00;4973841;28;20255;-83
2022/02/18 08:35:33;;;;;;;6.20;3.00;;;;;;;6.75;80.60;99583.22;5015148;28;20206;-76
2022/02/18 08:38:01;;;;;;;5.33;2.60;;;;;;;6.73;80.72;99582.38;5015371;28;20214;-77
2022/02/18 08:40:28;;;;;;;11.80;5.30;;;;;;;6.76;80.08;99589.28;5015154;28;20230;-77
2022/02/18 08:42:54;;;;;;;6.63;2.90;;;;;;;6.79;79.53;99593.53;5015450;28;20202;-77
2022/02/18 08:45:21;;;;;;;7.50;2.90;;;;;;;6.83;80.00;99584.81;5015133;28;20213;-77
2022/02/18 08:47:47;;;;;;;6.80;2.57;;;;;;;6.88;79.77;99581.28;5015151;28;20577;-78
2022/02/18 08:50:15;;;;;;;4.53;2.17;;;;;;;6.84;79.94;99558.00;5015986;28;20214;-78
2022/02/18 08:52:42;;;;;;;7.20;2.73;;;;;;;6.84;79.39;99555.41;5015916;28;20211;-78
2022/02/18 08:55:12;;;;;;;9.10;3.03;;;;;;;6.80;79.92;99553.75;5016481;28;20237;-78
2022/02/18 08:57:39;;;;;;;7.87;2.40;;;;;;;6.85;78.87;99570.09;5015942;28;20206;-77
2022/02/18 09:00:08;;;;;;;4.73;2.50;;;;;;;6.92;78.08;99582.09;5014946;28;20726;-77
2022/02/18 09:02:35;;;;;;;6.07;2.37;;;;;;;6.91;77.96;99583.78;5015610;28;20711;-77
2022/02/18 09:05:01;;;;;;;8.67;2.63;;;;;;;6.94;77.39;99588.09;5015159;28;20233;-77
2022/02/18 09:07:28;;;;;;;6.33;2.87;;;;;;;7.03;77.51;99582.72;5016686;28;20210;-78
2022/02/18 09:09:56;;;;;;;4.33;1.83;;;;;;;7.06;77.09;99592.22;5014706;28;20214;-77
2022/02/18 09:12:24;;;;;;;6.47;2.30;;;;;;;7.16;79.43;99553.06;5016302;28;20211;-77
2022/02/18 09:14:51;;;;;;;7.87;2.97;;;;;;;7.18;77.47;99575.56;5016217;28;20256;-78
2022/02/18 09:17:18;;;;;;;7.30;2.33;;;;;;;7.18;78.23;99552.19;5015503;28;20220;-77
2022/02/18 09:19:44;;;;;;;8.73;2.47;;;;;;;7.11;77.95;99554.03;5015942;28;20207;-78
2022/02/18 09:22:11;;;;;;;7.30;2.50;;;;;;;7.13;77.58;99532.34;5015103;28;20284;-78
2022/02/18 09:24:38;;;;;;;7.10;2.23;;;;;;;7.14;76.97;99539.28;5015653;28;20249;-77
2022/02/18 09:27:04;;;;;;;9.37;2.10;;;;;;;7.10;76.06;99553.19;5016365;28;20237;-79
2022/02/18 09:29:32;;;;;;;7.93;2.37;;;;;;;7.19;77.83;99540.91;5018006;28;20209;-78
2022/02/18 09:32:03;;;;;;;4.53;2.50;;;;;;;7.20;77.72;99501.97;5019332;28;20660;-78
2022/02/18 09:34:30;;;;;;;9.17;2.30;;;;;;;7.28;79.74;99449.91;5019266;28;20730;-78
2022/02/18 09:36:56;;;;;;;8.93;2.47;;;;;;;7.32;79.26;99452.38;5016021;28;20213;-78
2022/02/18 09:39:23;;;;;;;10.67;2.57;;;;;;;7.40;79.19;99441.00;5014355;28;20217;-77
2022/02/18 09:41:50;;;;;;;8.33;1.90;;;;;;;7.35;77.87;99467.91;5013951;28;20703;-78
2022/02/18 09:44:18;;;;;;;5.93;2.33;;;;;;;7.35;77.84;99457.53;5014288;28;20801;-78
2022/02/18 09:46:47;;;;;;;7.27;2.13;;;;;;;7.39;77.64;99457.44;5014021;28;20242;-77
2022/02/18 09:49:14;;;;;;;6.53;2.07;;;;;;;7.45;78.98;99415.75;5014305;28;20236;-77
2022/02/18 09:51:40;;;;;;;10.83;2.20;;;;;;;7.47;79.47;99399.28;5013693;28;20198;-77
2022/02/18 09:54:07;;;;;;;10.43;2.27;;;;;;;7.36;79.92;99386.53;5010716;28;20226;-77
2022/02/18 09:56:35;;;;;;;7.17;1.90;;;;;;;7.34;80.79;99345.94;5013888;28;20203;-77
2022/02/18 09:59:03;;;;;;;5.20;1.83;;;;;;;7.21;79.96;99344.50;5012823;28;20241;-77
2022/02/18 10:01:31;;;;;;;6.33;1.83;;;;;;;7.23;81.14;99327.16;5013682;28;20238;-77
2022/02/18 10:04:00;;;;;;;7.73;2.80;;;;;;;7.25;81.48;99302.84;5014112;28;20280;-77
2022/02/18 10:06:28;;;;;;;9.47;2.80;;;;;;;7.15;82.04;99268.50;5014331;28;20210;-77
2022/02/18 10:08:54;;;;;;;9.03;2.23;;;;;;;7.12;83.54;99245.22;5013484;28;20218;-77
2022/02/18 10:11:21;;;;;;;5.83;2.30;;;;;;;7.06;84.81;99196.06;5013544;28;20195;-77
2022/02/18 10:13:48;;;;;;;7.80;1.90;;;;;;;6.94;85.74;99144.50;5013958;28;20230;-77
2022/02/18 10:16:18;;;;;;;12.40;2.33;;;;;;;7.03;85.49;99126.06;5013980;28;20267;-77
2022/02/18 10:18:51;;;;;;;9.90;2.30;;;;;;;6.96;87.43;99102.03;5014176;28;20210;-77
2022/02/18 10:21:20;;;;;;;7.57;2.70;;;;;;;7.07;87.18;99075.81;5013392;28;20704;-77
2022/02/18 10:23:47;;;;;;;7.57;2.03;;;;;;;7.06;88.43;99031.75;5013492;28;20229;-76
2022/02/18 10:26:14;;;;;;;11.70;2.53;;;;;;;7.09;88.69;99001.38;5013878;28;20265;-77
2022/02/18 10:28:40;;;;;;;10.10;2.70;;;;;;;7.05;89.59;98980.75;5013300;28;20218;-77
2022/02/18 10:31:08;;;;;;;8.33;2.53;;;;;;;7.04;91.20;98942.75;5013060;28;20280;-77
2022/02/18 10:33:37;;;;;;;8.97;2.80;;;;;;;7.08;89.71;98939.16;5013545;28;20300;-77
2022/02/18 10:36:06;;;;;;;10.53;2.73;;;;;;;7.08;90.53;98934.81;5013329;28;20259;-77
2022/02/18 10:38:36;;;;;;;8.80;1.90;;;;;;;7.04;90.76;98916.81;5013244;28;20703;-77
2022/02/18 10:41:17;;;;;;;10.00;2.67;;;;;;;6.99;90.47;98888.38;5012794;28;20262;-77
2022/02/18 10:43:45;;;;;;;8.80;2.37;;;;;;;6.99;92.57;98857.25;5012132;28;20236;-77
2022/02/18 10:46:12;;;;;;;8.10;2.40;;;;;;;7.05;92.38;98832.88;5013063;28;20206;-77
2022/02/18 10:48:46;;;;;;;7.97;2.10;;;;;;;7.07;92.03;98821.53;5012651;28;20285;-77
2022/02/18 10:51:16;;;;;;;10.47;2.23;;;;;;;7.06;91.67;98814.66;5012994;28;20209;-77
2022/02/18 10:53:47;;;;;;;6.77;2.40;;;;;;;7.05;91.63;98812.13;5012990;28;20222;-77
2022/02/18 10:56:15;;;;;;;14.53;2.17;;;;;;;7.10;91.91;98800.72;5013355;28;20238;-78
2022/02/18 10:58:43;;;;;;;9.73;2.10;;;;;;;7.15;91.24;98805.75;5013235;28;20304;-77
2022/02/18 11:01:13;;;;;;;10.30;3.07;;;;;;;7.20;92.44;98809.06;5012775;28;20710;-77
2022/02/18 11:03:41;;;;;;;8.10;2.60;;;;;;;7.21;91.05;98809.91;5012800;28;20257;-77
2022/02/18 11:06:19;;;;;;;6.50;2.20;;;;;;;7.26;92.27;98793.28;5013010;28;20206;-77
2022/02/18 11:08:57;;;;;;;8.77;2.23;;;;;;;7.33;91.24;98779.22;5037944;23;20222;-77
2022/02/18 11:11:27;;;;;;;6.33;2.40;;;;;;;7.40;91.34;98766.88;5036542;28;20220;-77
2022/02/18 11:13:55;;;;;;;6.70;2.10;;;;;;;7.44;91.62;98768.47;5038896;28;20726;-77
2022/02/18 11:16:26;;;;;;;6.30;1.80;;;;;;;7.52;91.72;98732.72;5039044;28;20210;-77
2022/02/18 11:18:53;;;;;;;9.60;2.27;;;;;;;7.59;91.92;98735.09;5039738;28;20209;-77
2022/02/18 11:21:19;;;;;;;6.00;1.87;;;;;;;7.67;92.25;98725.28;5040234;28;20272;-77
2022/02/18 11:23:48;;;;;;;7.00;2.37;;;;;;;7.62;91.79;98735.00;5040331;28;20236;-77
2022/02/18 11:26:17;;;;;;;6.47;1.90;;;;;;;7.59;91.92;98707.41;5039316;28;20206;-77
2022/02/18 11:28:45;;;;;;;5.10;1.90;;;;;;;7.55;92.45;98691.09;5037726;28;20710;-78
2022/02/18 11:31:21;;;;;;;6.70;2.03;;;;;;;7.68;92.58;98670.72;5039380;28;20404;-78
2022/02/18 11:34:07;;;;;;;4.30;1.50;;;;;;;7.79;92.44;98669.47;5040275;28;20292;-78
2022/02/18 11:37:12;;;;;;;4.27;1.40;;;;;;;7.80;92.77;98637.41;5039539;28;20205;-78
2022/02/18 11:40:00;;;;;;;5.20;2.03;;;;;;;7.82;93.08;98623.47;5017531;28;20205;-78
2022/02/18 11:42:42;;;;;;;4.87;1.40;;;;;;;7.88;94.38;98620.63;5038518;28;20255;-78
2022/02/18 11:45:14;;;;;;;2.30;1.67;;;;;;;7.93;93.54;98613.53;5038698;28;20225;-78
2022/02/18 11:47:42;;;;;;;4.30;1.40;;;;;;;8.01;93.09;98609.78;5040557;28;20209;-78